METAR UND TAF INFORMATION
YBCS 170230Z 07014KT CAVOK 34/21 Q1004 NOSIG

 FLUGHAFENKARTE

 RUNWAY INFORMATION
Runway 12 Runway length 3035 ft Runway width 60 ft
Runway elevation 9 ft Runway displaced threshold 0 ft Runway heading 126
Runway 30 Runway length 3035 ft Runway width 60 ft
Runway elevation 6 ft Runway displaced threshold 0 ft Runway heading 306
Runway 15 Runway length 10489 ft Runway width 148 ft
Runway elevation 9 ft Runway displaced threshold 0 ft Runway heading 156
Runway 33 Runway length 10489 ft Runway width 148 ft
Runway elevation 7 ft Runway displaced threshold 0 ft Runway heading 336

 AIRPORT FREQUENCIES
Type A/D Name APP/DEP Frequency 118.4 MHZ
Type ATIS Name ATIS Frequency 113 MHZ
Type CLD Name CLNC DEL Frequency 121.7 MHZ
Type GND Name GND Frequency 121.7 MHZ
Type TWR Name TWR Frequency 124.9 MHZ

 AIRPORT NEAR NAVIGATION AIDS
Type VOR-DME Name Cairns Frequency 113000 KHZ
Type NDB Name Cairns Frequency 364 KHZ



Version 5.0.0: Changelog

Impressum | Datenschutzerklärung

Virtual Airlines Manager